Time;durP1;ratioP1;P1;durP2;ratioP2;P2;SDS_P1;SDS_P2;PMS_P1;PMS_P2;Temp;Humidity;BMP_temperature;BMP_pressure;BME280_temperature;BME280_humidity;BME280_pressure;Samples;Min_cycle;Max_cycle;Signal;HPM_P1;HPM_P2
2021/05/15 00:01:57;;;;;;;40.90;23.43;;;7.80;92.80;;;;;;5054379;28;20658;-83
2021/05/15 00:04:23;;;;;;;39.30;24.23;;;7.80;92.80;;;;;;5054508;28;20207;-84
2021/05/15 00:06:48;;;;;;;41.87;23.50;;;7.80;92.90;;;;;;5054335;28;20251;-83
2021/05/15 00:09:14;;;;;;;40.70;22.37;;;7.80;93.00;;;;;;5036409;28;20182;-83
2021/05/15 00:11:40;;;;;;;39.77;23.07;;;7.80;92.90;;;;;;5054308;28;20192;-83
2021/05/15 00:14:06;;;;;;;40.17;22.90;;;7.80;92.80;;;;;;5054150;28;20180;-84
2021/05/15 00:16:32;;;;;;;43.57;23.40;;;7.80;92.70;;;;;;5036393;28;20551;-83
2021/05/15 00:18:58;;;;;;;38.73;22.83;;;7.80;92.80;;;;;;5054077;28;20258;-84
2021/05/15 00:21:23;;;;;;;39.23;22.70;;;7.80;92.80;;;;;;5036132;28;20215;-84
2021/05/15 00:23:49;;;;;;;42.47;23.93;;;7.80;92.70;;;;;;5054261;28;20178;-84
2021/05/15 00:26:15;;;;;;;35.60;22.63;;;7.80;92.70;;;;;;5036180;28;20180;-84
2021/05/15 00:28:44;;;;;;;40.17;23.07;;;7.80;92.70;;;;;;5053951;28;20180;-84
2021/05/15 00:31:10;;;;;;;41.33;21.87;;;7.90;92.70;;;;;;5053799;28;20195;-84
2021/05/15 00:33:36;;;;;;;40.07;23.17;;;7.90;92.70;;;;;;5036622;28;20199;-83
2021/05/15 00:36:02;;;;;;;37.87;23.97;;;7.90;92.70;;;;;;5035833;28;20176;-83
2021/05/15 00:38:28;;;;;;;37.57;23.07;;;7.80;92.70;;;;;;5053702;28;20178;-83
2021/05/15 00:40:54;;;;;;;33.83;21.77;;;7.80;92.70;;;;;;5035822;28;20196;-83
2021/05/15 00:43:19;;;;;;;45.77;23.60;;;7.80;92.70;;;;;;5053576;28;20679;-84
2021/05/15 00:45:46;;;;;;;35.40;22.20;;;7.90;92.70;;;;;;5053616;28;20548;-83
2021/05/15 00:48:12;;;;;;;42.87;21.83;;;7.80;92.70;;;;;;5035644;28;20176;-83
2021/05/15 00:50:37;;;;;;;36.30;22.93;;;7.80;92.60;;;;;;5053303;28;20210;-83
2021/05/15 00:53:04;;;;;;;40.90;22.97;;;7.90;92.70;;;;;;5053566;28;20251;-83
2021/05/15 00:55:30;;;;;;;38.30;23.70;;;7.90;92.70;;;;;;5053532;28;20189;-84
2021/05/15 00:57:57;;;;;;;41.57;23.83;;;7.90;92.70;;;;;;5053414;28;20230;-83
2021/05/15 01:00:23;;;;;;;35.33;22.40;;;7.80;92.60;;;;;;5053712;28;20223;-83
2021/05/15 01:02:49;;;;;;;46.90;23.27;;;7.90;92.70;;;;;;5053552;28;20192;-83
2021/05/15 01:05:16;;;;;;;33.80;21.67;;;7.90;92.70;;;;;;5053208;28;20214;-83
2021/05/15 01:07:46;;;;;;;35.13;22.30;;;7.90;92.70;;;;;;5053277;28;20176;-83
2021/05/15 01:10:12;;;;;;;35.30;22.23;;;7.90;92.70;;;;;;5035316;28;20183;-83
2021/05/15 01:13:04;;;;;;;31.67;21.70;;;8.00;92.70;;;;;;5053187;28;20628;-83
2021/05/15 01:15:30;;;;;;;33.53;20.57;;;7.90;92.60;;;;;;5032808;28;20188;-83
2021/05/15 01:17:59;;;;;;;35.03;21.80;;;8.00;92.70;;;;;;5053165;28;20197;-83
2021/05/15 01:20:27;;;;;;;30.97;17.07;;;7.90;92.50;;;;;;5053247;28;20341;-83
2021/05/15 01:22:54;;;;;;;29.60;17.10;;;7.90;92.50;;;;;;5035163;28;20211;-84
2021/05/15 01:25:20;;;;;;;28.97;16.60;;;7.90;92.20;;;;;;5053035;28;20168;-84
2021/05/15 01:27:46;;;;;;;23.30;16.70;;;7.90;92.10;;;;;;5053082;28;20176;-84
2021/05/15 01:30:14;;;;;;;26.30;17.30;;;7.90;92.10;;;;;;5053017;28;20251;-84
2021/05/15 01:32:43;;;;;;;25.23;16.13;;;7.90;92.10;;;;;;5035071;28;20554;-84
2021/05/15 01:35:09;;;;;;;24.87;16.37;;;7.90;92.10;;;;;;5053223;28;20176;-84
2021/05/15 01:37:36;;;;;;;28.10;17.57;;;7.90;91.90;;;;;;5035631;28;20176;-84
2021/05/15 01:40:05;;;;;;;27.97;15.73;;;7.90;91.70;;;;;;5052877;28;20186;-84
2021/05/15 01:42:31;;;;;;;27.30;16.70;;;7.80;91.50;;;;;;5035134;28;20211;-84
2021/05/15 01:44:58;;;;;;;33.27;17.47;;;7.90;91.20;;;;;;5053061;28;20546;-84
2021/05/15 01:47:24;;;;;;;30.30;18.60;;;7.90;91.20;;;;;;5053285;28;20198;-84
2021/05/15 01:49:49;;;;;;;32.13;17.00;;;7.90;91.30;;;;;;5052896;28;20184;-83
2021/05/15 01:52:16;;;;;;;28.03;16.53;;;7.90;91.30;;;;;;5052773;28;20208;-83
2021/05/15 01:54:42;;;;;;;25.17;15.03;;;7.90;91.10;;;;;;5052864;28;20188;-84
2021/05/15 01:57:09;;;;;;;28.47;16.73;;;7.90;90.60;;;;;;5052907;28;20176;-83
2021/05/15 01:59:34;;;;;;;24.97;15.80;;;7.90;90.50;;;;;;5055046;28;20172;-84
2021/05/15 02:02:00;;;;;;;35.57;18.83;;;7.90;90.70;;;;;;5056613;28;20349;-84
2021/05/15 02:04:26;;;;;;;31.23;18.43;;;7.90;90.70;;;;;;5038876;28;20228;-84
2021/05/15 02:06:51;;;;;;;28.80;18.13;;;7.90;90.90;;;;;;5056626;28;20176;-83
2021/05/15 02:09:17;;;;;;;33.17;20.07;;;7.90;91.00;;;;;;5038804;28;20640;-83
2021/05/15 02:11:43;;;;;;;26.93;18.67;;;7.90;91.10;;;;;;5056833;28;20329;-83
2021/05/15 02:14:09;;;;;;;30.40;18.90;;;7.90;91.00;;;;;;5056453;28;20176;-84
2021/05/15 02:16:34;;;;;;;28.43;17.87;;;7.90;91.00;;;;;;5038551;28;20191;-84
2021/05/15 02:19:00;;;;;;;32.23;17.67;;;7.90;90.90;;;;;;5056669;28;20176;-84
2021/05/15 02:21:26;;;;;;;29.03;16.30;;;7.90;90.70;;;;;;5056162;28;20196;-84
2021/05/15 02:23:51;;;;;;;31.33;16.60;;;7.90;90.70;;;;;;5056624;28;20178;-84
2021/05/15 02:26:18;;;;;;;28.97;17.10;;;7.90;90.70;;;;;;5056193;28;20171;-84
2021/05/15 02:28:44;;;;;;;21.17;15.87;;;7.90;90.70;;;;;;5056177;28;20180;-84
2021/05/15 02:31:10;;;;;;;28.47;16.67;;;7.90;90.70;;;;;;5056328;28;20196;-83
2021/05/15 02:33:35;;;;;;;24.30;15.13;;;7.90;90.50;;;;;;5056130;28;20183;-83
2021/05/15 02:36:01;;;;;;;27.73;15.90;;;7.90;90.40;;;;;;5056080;28;20180;-84
2021/05/15 02:38:26;;;;;;;25.70;14.77;;;8.00;90.50;;;;;;5038120;28;20266;-84
2021/05/15 02:40:56;;;;;;;22.10;13.83;;;8.00;90.30;;;;;;5056016;28;20199;-83
2021/05/15 02:43:22;;;;;;;22.23;14.43;;;8.00;89.50;;;;;;5055888;28;20659;-83
2021/05/15 02:45:47;;;;;;;30.57;14.17;;;7.90;89.30;;;;;;5055943;28;20183;-84
2021/05/15 02:48:19;;;;;;;23.20;14.83;;;8.00;89.30;;;;;;5055934;28;20168;-83
2021/05/15 02:50:49;;;;;;;20.63;14.33;;;8.00;89.50;;;;;;5055844;28;20216;-83
2021/05/15 02:53:16;;;;;;;23.33;14.33;;;8.00;89.40;;;;;;5055800;28;20541;-84
2021/05/15 02:55:42;;;;;;;21.33;14.93;;;8.00;89.30;;;;;;5055661;28;20191;-84
2021/05/15 02:58:08;;;;;;;19.87;13.43;;;8.00;89.40;;;;;;5055757;28;20180;-84
2021/05/15 03:00:34;;;;;;;18.43;13.27;;;8.00;89.40;;;;;;5055789;28;20266;-83
2021/05/15 03:03:00;;;;;;;20.43;13.53;;;7.90;89.00;;;;;;5055529;28;20204;-83
2021/05/15 03:05:28;;;;;;;19.87;13.67;;;7.90;89.00;;;;;;5037604;28;20176;-83
2021/05/15 03:07:54;;;;;;;21.53;14.10;;;7.90;89.20;;;;;;5055445;28;20172;-83
2021/05/15 03:10:24;;;;;;;24.60;14.53;;;7.90;89.20;;;;;;5054080;28;20190;-83
2021/05/15 03:12:54;;;;;;;26.63;14.57;;;7.90;89.00;;;;;;5055485;28;20168;-83
2021/05/15 03:15:21;;;;;;;20.17;14.00;;;7.90;89.20;;;;;;5055931;28;20185;-83
2021/05/15 03:17:47;;;;;;;25.27;15.07;;;7.80;89.10;;;;;;5055387;28;20255;-83
2021/05/15 03:20:16;;;;;;;21.20;14.17;;;7.90;89.00;;;;;;5055292;28;20176;-83
2021/05/15 03:22:42;;;;;;;20.57;13.10;;;7.80;89.30;;;;;;5055213;28;20199;-84
2021/05/15 03:25:08;;;;;;;20.80;14.50;;;7.80;89.40;;;;;;5055813;28;20720;-83
2021/05/15 03:27:34;;;;;;;26.80;14.00;;;7.80;89.10;;;;;;5055096;28;20176;-83
2021/05/15 03:30:00;;;;;;;27.07;14.40;;;7.90;89.20;;;;;;5055102;28;20175;-83
2021/05/15 03:32:26;;;;;;;21.10;13.47;;;7.90;89.30;;;;;;5055063;28;20754;-84
2021/05/15 03:34:52;;;;;;;23.30;13.40;;;7.90;89.60;;;;;;5037137;28;20183;-84
2021/05/15 03:37:18;;;;;;;24.10;14.43;;;7.90;89.70;;;;;;5054977;28;20191;-84
2021/05/15 03:39:44;;;;;;;23.10;14.33;;;7.90;89.50;;;;;;5055049;28;20251;-83
2021/05/15 03:42:10;;;;;;;19.33;12.60;;;7.90;89.40;;;;;;5036844;28;20858;-83
2021/05/15 03:44:35;;;;;;;24.33;15.10;;;7.90;89.30;;;;;;5037018;28;20253;-84
2021/05/15 03:47:01;;;;;;;26.83;15.83;;;7.90;89.60;;;;;;5054804;28;20171;-83
2021/05/15 03:49:27;;;;;;;23.70;16.13;;;7.90;89.60;;;;;;5036958;28;20179;-83
2021/05/15 03:51:52;;;;;;;25.57;17.03;;;7.90;89.80;;;;;;5036580;28;20215;-83
2021/05/15 03:54:18;;;;;;;25.20;17.63;;;7.90;89.90;;;;;;5054972;28;20180;-83
2021/05/15 03:56:43;;;;;;;23.07;15.60;;;8.00;90.00;;;;;;5036826;28;20176;-83
2021/05/15 03:59:09;;;;;;;20.53;14.97;;;7.90;89.60;;;;;;5054586;28;20258;-83
2021/05/15 04:01:34;;;;;;;27.23;15.73;;;7.90;89.20;;;;;;5036728;28;20260;-83
2021/05/15 04:04:00;;;;;;;26.20;16.70;;;7.90;89.40;;;;;;5054477;28;20178;-83
2021/05/15 04:06:26;;;;;;;23.70;16.07;;;7.90;89.30;;;;;;5036556;28;20180;-83
2021/05/15 04:08:51;;;;;;;24.53;16.87;;;7.90;89.40;;;;;;5054360;28;20168;-83
2021/05/15 04:11:17;;;;;;;24.13;14.87;;;7.90;89.30;;;;;;5054387;28;20282;-83
2021/05/15 04:13:48;;;;;;;19.60;14.10;;;7.90;89.10;;;;;;5054242;28;20610;-82
2021/05/15 04:18:40;;;;;;;21.13;12.10;;;7.90;88.90;;;;;;5054428;28;20172;-83
2021/05/15 04:21:05;;;;;;;21.40;13.17;;;7.90;88.60;;;;;;5054151;28;20218;-83
2021/05/15 04:23:31;;;;;;;25.93;12.33;;;7.80;88.10;;;;;;5053773;28;20667;-83
2021/05/15 04:25:59;;;;;;;20.20;12.80;;;7.90;88.30;;;;;;5054025;28;20171;-83
2021/05/15 04:28:24;;;;;;;25.17;15.50;;;7.90;88.20;;;;;;5054077;28;20237;-83
2021/05/15 04:30:50;;;;;;;22.13;13.10;;;7.90;87.80;;;;;;5053898;28;20195;-83
2021/05/15 04:33:15;;;;;;;27.27;12.40;;;8.00;88.10;;;;;;5053871;28;20726;-83
2021/05/15 04:35:41;;;;;;;17.27;12.10;;;7.90;87.80;;;;;;5053851;28;20183;-83
2021/05/15 04:38:07;;;;;;;21.27;13.60;;;7.90;86.30;;;;;;5036033;28;20215;-83
2021/05/15 04:40:34;;;;;;;23.63;12.57;;;7.90;86.60;;;;;;5035984;28;20207;-82
2021/05/15 04:43:00;;;;;;;21.73;13.67;;;7.90;87.50;;;;;;5053697;28;20207;-83
2021/05/15 04:45:30;;;;;;;24.63;14.30;;;7.90;87.60;;;;;;5053685;28;20220;-83
2021/05/15 04:47:56;;;;;;;19.70;13.77;;;7.90;87.70;;;;;;5053608;28;20241;-83
2021/05/15 04:50:21;;;;;;;22.93;14.00;;;8.00;87.80;;;;;;5035495;28;20636;-82
2021/05/15 04:52:47;;;;;;;20.40;13.93;;;8.10;88.20;;;;;;5035103;28;20168;-83
2021/05/15 04:55:12;;;;;;;22.87;13.43;;;8.00;87.90;;;;;;5052797;28;20195;-83
2021/05/15 04:57:38;;;;;;;23.93;14.00;;;8.10;87.60;;;;;;5052703;28;20172;-83
2021/05/15 05:00:05;;;;;;;20.10;11.70;;;8.10;87.60;;;;;;5052553;28;20233;-82
2021/05/15 05:02:30;;;;;;;21.90;13.03;;;8.20;87.50;;;;;;5034637;28;20295;-83
2021/05/15 05:04:56;;;;;;;24.07;12.37;;;8.20;87.20;;;;;;5052621;28;20199;-83
2021/05/15 05:07:22;;;;;;;24.17;11.70;;;8.30;87.50;;;;;;5034631;28;20175;-83
2021/05/15 05:09:47;;;;;;;18.70;12.77;;;8.30;87.30;;;;;;5052464;28;20172;-83
2021/05/15 05:12:13;;;;;;;22.90;12.70;;;8.30;87.50;;;;;;5034625;28;20200;-83
2021/05/15 05:14:39;;;;;;;22.93;12.97;;;8.30;87.70;;;;;;5052476;28;20180;-83
2021/05/15 05:17:05;;;;;;;17.93;11.47;;;8.30;87.40;;;;;;5052471;28;20180;-83
2021/05/15 05:19:31;;;;;;;16.27;11.20;;;8.30;86.60;;;;;;5052353;28;20176;-83
2021/05/15 05:21:57;;;;;;;17.73;11.27;;;8.30;87.20;;;;;;5052414;28;20211;-84
2021/05/15 05:24:22;;;;;;;15.57;9.67;;;8.30;86.80;;;;;;5052651;28;20175;-83
2021/05/15 05:26:48;;;;;;;14.67;9.87;;;8.30;86.90;;;;;;5052386;28;20172;-83
2021/05/15 05:29:14;;;;;;;12.97;9.90;;;8.30;86.60;;;;;;5052318;28;20172;-84
2021/05/15 05:31:42;;;;;;;13.63;10.10;;;8.40;86.50;;;;;;5034353;28;20715;-83
2021/05/15 05:34:08;;;;;;;14.13;8.83;;;8.30;86.50;;;;;;5053949;28;20259;-83
2021/05/15 05:36:35;;;;;;;18.10;10.47;;;8.40;86.10;;;;;;5055796;28;20234;-83
2021/05/15 05:39:02;;;;;;;11.63;8.93;;;8.40;86.00;;;;;;5055785;28;20167;-83
2021/05/15 05:41:28;;;;;;;15.53;10.73;;;8.40;86.10;;;;;;5055591;28;20188;-83
2021/05/15 05:43:54;;;;;;;16.80;10.90;;;8.40;85.20;;;;;;5055759;28;20172;-83
2021/05/15 05:46:20;;;;;;;20.20;12.20;;;8.40;86.30;;;;;;5055779;28;20516;-83
2021/05/15 05:48:47;;;;;;;25.07;12.93;;;8.50;86.30;;;;;;5037756;28;20639;-84
2021/05/15 05:51:12;;;;;;;17.13;12.40;;;8.50;86.20;;;;;;5017026;28;609602;-84
2021/05/15 05:53:39;;;;;;;22.20;11.90;;;8.50;86.50;;;;;;5057246;28;20207;-83
2021/05/15 05:56:05;;;;;;;17.00;12.10;;;8.50;86.80;;;;;;5039126;28;20187;-84
2021/05/15 05:58:30;;;;;;;17.40;12.37;;;8.40;86.00;;;;;;5057135;28;20180;-83
2021/05/15 06:00:56;;;;;;;18.93;12.60;;;8.50;86.60;;;;;;5038943;28;20330;-83
2021/05/15 06:03:22;;;;;;;18.33;11.93;;;8.50;87.00;;;;;;5038799;28;20279;-83
2021/05/15 06:05:47;;;;;;;16.93;11.87;;;8.60;86.70;;;;;;5056712;28;20706;-83
2021/05/15 06:08:13;;;;;;;19.20;12.77;;;8.50;86.20;;;;;;5038722;28;20176;-83
2021/05/15 06:10:39;;;;;;;24.77;13.87;;;8.50;86.20;;;;;;5056912;28;20226;-83
2021/05/15 06:13:05;;;;;;;21.60;14.93;;;8.50;86.50;;;;;;5056526;28;20211;-83
2021/05/15 06:15:31;;;;;;;22.37;16.07;;;8.50;87.10;;;;;;5038584;28;20187;-84
2021/05/15 06:17:57;;;;;;;20.73;14.93;;;8.60;87.30;;;;;;5038669;28;20187;-83
2021/05/15 06:20:23;;;;;;;26.13;15.73;;;8.40;87.10;;;;;;5056453;28;20284;-83
2021/05/15 06:22:49;;;;;;;23.80;14.43;;;8.40;87.30;;;;;;5038498;28;20199;-83
2021/05/15 06:25:15;;;;;;;19.73;12.43;;;8.40;87.00;;;;;;5056440;28;20590;-83
2021/05/15 06:27:41;;;;;;;20.70;12.80;;;8.50;87.50;;;;;;5056583;28;20366;-83
2021/05/15 06:30:07;;;;;;;22.60;13.17;;;8.40;86.90;;;;;;5056179;28;20263;-82
2021/05/15 06:32:33;;;;;;;23.80;14.27;;;8.40;86.60;;;;;;5056188;28;20689;-83
2021/05/15 06:34:58;;;;;;;20.03;12.50;;;8.50;86.50;;;;;;5056456;28;20263;-83
2021/05/15 06:37:24;;;;;;;20.17;12.83;;;8.60;86.70;;;;;;5056714;28;20183;-83
2021/05/15 06:39:49;;;;;;;19.53;13.33;;;8.70;87.40;;;;;;5056053;28;20175;-83
2021/05/15 06:42:15;;;;;;;20.93;13.43;;;8.70;87.00;;;;;;5055895;28;20215;-83
2021/05/15 06:44:41;;;;;;;21.87;13.53;;;8.70;86.70;;;;;;5055678;28;20247;-83
2021/05/15 06:47:06;;;;;;;21.73;13.10;;;8.70;86.50;;;;;;5055986;28;20172;-83
2021/05/15 06:49:32;;;;;;;20.50;13.20;;;8.70;86.20;;;;;;5055934;28;20168;-83
2021/05/15 06:51:58;;;;;;;23.90;12.93;;;8.70;86.20;;;;;;5055729;28;20245;-83
2021/05/15 06:54:24;;;;;;;20.27;12.63;;;8.70;85.60;;;;;;5055739;28;20187;-83
2021/05/15 06:56:52;;;;;;;23.60;13.73;;;8.70;86.50;;;;;;5055921;28;20179;-83
2021/05/15 06:59:18;;;;;;;18.23;12.03;;;8.80;86.20;;;;;;5055721;28;20269;-84
2021/05/15 07:01:45;;;;;;;18.43;12.57;;;8.80;85.70;;;;;;5055469;28;20751;-83
2021/05/15 07:04:11;;;;;;;19.40;12.47;;;8.80;86.20;;;;;;5037635;28;20266;-83
2021/05/15 07:06:37;;;;;;;18.20;12.90;;;8.80;85.50;;;;;;5037706;28;20267;-84
2021/05/15 07:09:03;;;;;;;22.20;12.97;;;8.80;85.20;;;;;;5055794;28;20176;-84
2021/05/15 07:11:29;;;;;;;21.57;13.43;;;8.80;85.10;;;;;;5055651;28;20203;-84
2021/05/15 07:13:55;;;;;;;17.73;12.93;;;8.80;84.30;;;;;;5055355;28;20176;-83
2021/05/15 07:16:21;;;;;;;21.63;13.67;;;8.90;84.70;;;;;;5055492;28;20210;-83
2021/05/15 07:18:46;;;;;;;20.70;12.77;;;8.80;84.20;;;;;;5055678;28;20180;-83
2021/05/15 07:21:12;;;;;;;18.97;13.33;;;8.80;84.90;;;;;;5037405;28;20191;-84
2021/05/15 07:23:37;;;;;;;17.40;13.03;;;9.00;86.10;;;;;;5055234;28;20270;-84
2021/05/15 07:26:07;;;;;;;17.60;12.70;;;9.00;85.50;;;;;;5055304;28;20238;-83
2021/05/15 07:28:32;;;;;;;22.33;14.80;;;9.00;84.70;;;;;;5055285;28;20636;-84
2021/05/15 07:30:58;;;;;;;19.70;13.90;;;9.10;84.70;;;;;;5055104;28;20192;-84
2021/05/15 07:33:25;;;;;;;21.60;15.80;;;9.20;85.20;;;;;;5055104;28;20176;-83
2021/05/15 07:35:50;;;;;;;23.43;15.87;;;9.30;85.00;;;;;;5055062;28;20172;-84
2021/05/15 07:38:16;;;;;;;21.70;14.93;;;9.20;84.00;;;;;;5055282;28;20259;-84
2021/05/15 07:40:41;;;;;;;20.23;15.43;;;9.20;83.70;;;;;;5037096;28;20216;-84
2021/05/15 07:43:07;;;;;;;24.87;15.87;;;9.40;85.00;;;;;;5054810;28;20200;-84
2021/05/15 07:45:33;;;;;;;23.63;15.40;;;9.30;83.40;;;;;;5054854;28;20577;-83
2021/05/15 07:48:00;;;;;;;22.77;14.97;;;9.20;83.90;;;;;;5054842;28;20241;-83
2021/05/15 07:50:27;;;;;;;27.83;16.57;;;9.20;83.80;;;;;;5036631;28;20758;-83
2021/05/15 07:52:53;;;;;;;21.17;15.47;;;9.20;84.60;;;;;;5055061;28;20168;-84
2021/05/15 07:55:19;;;;;;;21.53;16.37;;;9.40;85.00;;;;;;5054710;28;20176;-84
2021/05/15 07:57:44;;;;;;;24.77;16.90;;;9.40;84.60;;;;;;5054417;28;20230;-83
2021/05/15 08:00:12;;;;;;;31.80;17.17;;;9.30;84.40;;;;;;5054519;28;20181;-83
2021/05/15 08:02:38;;;;;;;26.83;16.00;;;9.30;84.40;;;;;;5054723;28;20207;-84
2021/05/15 08:05:04;;;;;;;24.30;16.13;;;9.30;83.90;;;;;;5054915;28;20629;-83
2021/05/15 08:07:30;;;;;;;25.43;17.67;;;9.30;84.10;;;;;;5054698;28;20663;-84
2021/05/15 08:09:56;;;;;;;25.43;15.77;;;9.40;84.90;;;;;;5054592;28;20172;-84
2021/05/15 08:12:22;;;;;;;24.47;17.50;;;9.30;83.40;;;;;;5054213;28;20200;-83
2021/05/15 08:14:47;;;;;;;25.37;17.87;;;9.30;83.60;;;;;;5054322;28;20231;-84
2021/05/15 08:17:13;;;;;;;28.60;19.30;;;9.30;83.40;;;;;;5054194;28;20259;-84
2021/05/15 08:19:39;;;;;;;25.53;18.10;;;9.30;83.80;;;;;;5054152;28;20176;-84
2021/05/15 08:22:05;;;;;;;27.53;18.67;;;9.50;84.80;;;;;;5054071;28;20210;-84
2021/05/15 08:24:30;;;;;;;27.93;18.73;;;9.60;84.50;;;;;;5054360;28;20180;-84
2021/05/15 08:26:57;;;;;;;28.73;18.10;;;9.50;84.70;;;;;;5036165;28;20178;-84
2021/05/15 08:29:23;;;;;;;27.00;18.80;;;9.50;84.80;;;;;;5053980;28;20172;-84
2021/05/15 08:31:49;;;;;;;29.87;18.93;;;9.60;84.70;;;;;;5054177;28;20618;-84
2021/05/15 08:34:14;;;;;;;27.40;17.93;;;9.70;84.60;;;;;;5054172;28;20250;-84
2021/05/15 08:36:40;;;;;;;27.10;18.03;;;9.70;85.20;;;;;;5053943;28;20706;-84
2021/05/15 08:39:06;;;;;;;25.53;18.60;;;9.70;84.70;;;;;;5053816;28;20166;-84
2021/05/15 08:41:33;;;;;;;29.43;19.63;;;9.70;84.60;;;;;;5035860;28;20196;-85
2021/05/15 08:44:02;;;;;;;26.50;16.70;;;9.90;85.00;;;;;;5053706;28;20186;-84
2021/05/15 08:46:29;;;;;;;27.67;18.20;;;10.00;84.20;;;;;;5053779;28;20172;-84
2021/05/15 08:48:57;;;;;;;23.17;16.80;;;9.80;83.60;;;;;;5053939;28;20203;-84
2021/05/15 08:51:24;;;;;;;25.43;18.77;;;9.80;83.90;;;;;;5053510;28;20298;-85
2021/05/15 08:53:51;;;;;;;26.43;18.33;;;9.90;83.50;;;;;;5053584;28;20180;-84
2021/05/15 08:56:17;;;;;;;28.83;17.33;;;10.10;83.90;;;;;;5053850;28;20175;-84
2021/05/15 08:58:44;;;;;;;24.97;17.93;;;10.20;83.40;;;;;;5053517;28;20194;-84
2021/05/15 09:01:12;;;;;;;23.63;17.80;;;10.20;83.90;;;;;;5053396;28;20279;-84
2021/05/15 09:03:38;;;;;;;26.63;17.57;;;10.30;84.10;;;;;;5035642;28;20199;-84
2021/05/15 09:06:04;;;;;;;27.83;17.87;;;10.30;83.30;;;;;;5035404;28;20179;-84
2021/05/15 09:08:29;;;;;;;22.57;16.60;;;10.30;83.30;;;;;;5035425;28;20187;-84
2021/05/15 09:10:55;;;;;;;30.03;17.27;;;10.50;84.20;;;;;;5053275;28;20274;-84
2021/05/15 09:13:28;;;;;;;24.77;17.23;;;10.60;83.50;;;;;;5053450;28;20212;-84
2021/05/15 09:16:00;;;;;;;24.57;16.53;;;10.60;83.00;;;;;;5035488;28;20180;-84
2021/05/15 09:18:33;;;;;;;25.03;17.83;;;10.60;83.00;;;;;;5053455;28;20187;-84
2021/05/15 09:21:02;;;;;;;21.83;16.17;;;10.70;83.20;;;;;;5053233;28;20218;-84
2021/05/15 09:23:33;;;;;;;22.03;17.33;;;10.70;82.20;;;;;;5053133;28;20578;-84
2021/05/15 09:26:04;;;;;;;24.20;16.03;;;10.70;81.70;;;;;;5035471;28;20180;-85
2021/05/15 09:28:46;;;;;;;27.00;16.67;;;10.70;81.70;;;;;;5053277;28;20157;-85
2021/05/15 09:31:23;;;;;;;27.77;18.23;;;10.60;81.80;;;;;;5053119;28;20196;-84
2021/05/15 09:33:57;;;;;;;23.77;16.80;;;10.60;82.40;;;;;;5035294;28;20168;-84
2021/05/15 09:36:30;;;;;;;25.10;17.27;;;10.70;83.20;;;;;;5053258;28;20179;-84
2021/05/15 09:39:13;;;;;;;25.47;17.30;;;10.70;81.90;;;;;;5035349;28;20616;-84
2021/05/15 09:41:38;;;;;;;22.20;16.67;;;10.80;83.40;;;;;;5053008;28;20659;-84
2021/05/15 09:44:06;;;;;;;23.53;17.20;;;10.80;81.50;;;;;;5053143;28;20178;-85
2021/05/15 09:46:34;;;;;;;22.17;15.80;;;11.00;82.20;;;;;;5052981;28;20176;-84
2021/05/15 09:48:59;;;;;;;19.60;15.53;;;11.20;82.10;;;;;;5052981;28;20176;-84
2021/05/15 09:51:25;;;;;;;16.73;14.20;;;11.30;81.10;;;;;;5034902;28;20207;-84
2021/05/15 09:53:51;;;;;;;22.30;14.43;;;11.50;81.90;;;;;;5035181;28;20731;-85
2021/05/15 09:56:31;;;;;;;19.97;14.60;;;11.60;80.60;;;;;;5034819;28;20656;-85
2021/05/15 09:58:57;;;;;;;21.03;14.70;;;11.70;81.90;;;;;;5052858;28;20187;-84
2021/05/15 10:01:26;;;;;;;21.60;14.33;;;11.80;81.60;;;;;;5052689;28;20629;-84
2021/05/15 10:04:02;;;;;;;18.23;13.73;;;12.10;79.60;;;;;;5034848;28;20258;-85
2021/05/15 10:06:28;;;;;;;17.70;13.77;;;12.20;78.90;;;;;;5052893;28;20171;-84
2021/05/15 10:08:54;;;;;;;22.33;14.13;;;12.30;76.30;;;;;;5035011;28;20269;-85
2021/05/15 10:11:21;;;;;;;22.37;13.73;;;12.50;78.50;;;;;;5052831;28;20192;-84
2021/05/15 10:13:47;;;;;;;17.27;12.90;;;12.40;78.20;;;;;;5052805;28;20585;-85
2021/05/15 10:16:13;;;;;;;18.43;14.37;;;12.30;77.30;;;;;;5034822;28;20191;-84
2021/05/15 10:18:39;;;;;;;20.17;15.23;;;12.10;78.40;;;;;;5052935;28;20229;-84
2021/05/15 10:21:05;;;;;;;18.33;13.77;;;12.30;79.50;;;;;;5056028;28;20192;-85
2021/05/15 10:23:39;;;;;;;21.00;15.43;;;12.80;78.30;;;;;;5056800;28;20330;-85
2021/05/15 10:26:15;;;;;;;17.07;13.73;;;12.90;77.70;;;;;;5038856;28;20242;-85
2021/05/15 10:28:42;;;;;;;22.77;15.03;;;13.10;79.30;;;;;;5056539;28;20160;-85
2021/05/15 10:31:16;;;;;;;22.43;15.37;;;13.30;77.60;;;;;;5038436;28;20667;-85
2021/05/15 10:33:45;;;;;;;21.43;13.53;;;13.30;76.30;;;;;;5056311;28;20165;-85
2021/05/15 10:36:22;;;;;;;21.63;14.57;;;13.30;75.80;;;;;;5056507;28;20204;-85
2021/05/15 10:38:50;;;;;;;20.07;14.87;;;13.20;75.60;;;;;;5056247;28;20589;-85
2021/05/15 10:41:23;;;;;;;24.60;15.03;;;13.00;75.90;;;;;;5056150;28;20195;-85
2021/05/15 10:43:49;;;;;;;21.67;15.17;;;12.90;75.30;;;;;;5038148;28;20195;-85
2021/05/15 10:46:28;;;;;;;17.93;15.10;;;12.90;74.20;;;;;;5056260;28;20175;-85
2021/05/15 10:49:06;;;;;;;19.23;13.77;;;13.20;77.20;;;;;;5056155;28;20164;-85
2021/05/15 10:51:41;;;;;;;21.23;14.93;;;13.30;75.90;;;;;;5038039;28;20216;-85
2021/05/15 10:54:09;;;;;;;20.67;15.00;;;13.80;77.10;;;;;;5056224;28;20235;-85
2021/05/15 10:56:36;;;;;;;21.23;14.50;;;13.90;74.20;;;;;;5056225;28;20172;-85
2021/05/15 10:59:05;;;;;;;23.23;14.27;;;13.80;74.80;;;;;;5056174;28;20238;-85
2021/05/15 11:01:45;;;;;;;19.07;13.10;;;13.90;76.90;;;;;;5056148;28;20706;-85
2021/05/15 11:04:21;;;;;;;21.70;14.53;;;14.00;72.50;;;;;;5037816;28;20254;-85
2021/05/15 11:07:09;;;;;;;19.43;14.33;;;14.20;75.10;;;;;;5055758;28;20187;-85
2021/05/15 11:09:51;;;;;;;18.43;12.40;;;14.30;74.60;;;;;;5056084;28;20160;-84
2021/05/15 11:12:18;;;;;;;21.43;13.10;;;14.40;71.60;;;;;;5038235;28;20658;-86
2021/05/15 11:14:49;;;;;;;16.50;13.43;;;14.20;69.00;;;;;;5038012;28;20596;-85
2021/05/15 11:17:23;;;;;;;19.90;14.47;;;14.30;71.10;;;;;;5037713;28;20188;-85
2021/05/15 11:19:48;;;;;;;26.17;14.90;;;14.60;74.60;;;;;;5055752;28;20198;-85
2021/05/15 11:22:15;;;;;;;21.57;14.67;;;15.00;72.80;;;;;;5037734;28;20633;-84
2021/05/15 11:24:50;;;;;;;21.13;14.37;;;15.00;70.80;;;;;;5055877;28;20168;-84
2021/05/15 11:27:18;;;;;;;20.17;14.63;;;15.30;70.90;;;;;;5055391;28;20612;-84
2021/05/15 11:29:44;;;;;;;19.90;13.68;;;15.30;69.10;;;;;;5055255;28;20566;-84
2021/05/15 11:32:13;;;;;;;19.05;14.50;;;15.60;70.10;;;;;;5054229;28;20249;-84
2021/05/15 11:34:39;;;;;;;19.80;13.82;;;16.00;71.40;;;;;;5054981;28;20172;-84
2021/05/15 11:37:06;;;;;;;18.40;12.88;;;16.20;66.70;;;;;;5054988;28;20168;-84
2021/05/15 11:39:32;;;;;;;24.65;13.68;;;16.30;65.00;;;;;;5037028;28;20263;-84
2021/05/15 11:42:16;;;;;;;15.38;12.70;;;16.30;65.60;;;;;;5054721;28;20275;-84
2021/05/15 11:44:43;;;;;;;17.83;12.73;;;16.20;67.10;;;;;;5055176;28;20210;-84
2021/05/15 11:47:11;;;;;;;17.08;12.63;;;16.10;65.70;;;;;;5054838;28;20188;-84
2021/05/15 11:49:38;;;;;;;22.65;14.20;;;15.90;63.60;;;;;;5054716;28;20168;-84
2021/05/15 11:52:08;;;;;;;19.10;14.10;;;15.60;66.60;;;;;;5054520;28;20208;-84
2021/05/15 11:54:36;;;;;;;19.40;14.25;;;15.50;68.00;;;;;;5037050;28;20176;-84
2021/05/15 11:57:02;;;;;;;18.95;13.43;;;15.50;66.80;;;;;;5055006;28;20644;-85
2021/05/15 11:59:29;;;;;;;18.10;14.35;;;15.70;66.50;;;;;;5036690;28;20218;-84
2021/05/15 12:01:56;;;;;;;18.92;13.50;;;15.60;66.50;;;;;;5036398;28;20208;-84
2021/05/15 12:04:30;;;;;;;17.67;13.10;;;15.80;68.60;;;;;;5036781;28;20294;-85
2021/05/15 12:06:58;;;;;;;19.08;13.45;;;16.10;64.40;;;;;;5054984;28;20154;-84
2021/05/15 12:09:26;;;;;;;24.85;15.13;;;16.10;65.80;;;;;;5054683;28;20171;-85
2021/05/15 12:12:01;;;;;;;21.83;15.00;;;15.70;66.40;;;;;;5054327;28;20192;-85
2021/05/15 12:14:28;;;;;;;18.20;13.45;;;15.60;65.90;;;;;;5054411;28;20182;-85
2021/05/15 12:16:54;;;;;;;21.40;14.02;;;15.70;67.30;;;;;;5054376;28;20221;-84
2021/05/15 12:19:29;;;;;;;21.27;14.00;;;15.20;67.60;;;;;;5054492;28;20179;-84
2021/05/15 12:21:55;;;;;;;18.30;13.70;;;15.00;69.00;;;;;;5054117;28;20607;-84
2021/05/15 12:24:21;;;;;;;19.07;14.57;;;15.00;70.70;;;;;;5036393;28;20172;-84
2021/05/15 12:26:47;;;;;;;25.00;15.27;;;15.10;70.40;;;;;;5054566;28;20190;-84
2021/05/15 12:29:13;;;;;;;22.17;14.37;;;15.20;69.70;;;;;;5054102;28;20179;-84
2021/05/15 12:31:41;;;;;;;22.13;15.15;;;15.30;68.70;;;;;;5054165;28;20198;-84
2021/05/15 12:34:08;;;;;;;22.02;15.02;;;15.50;69.00;;;;;;5036038;28;20285;-84
2021/05/15 12:36:36;;;;;;;19.53;14.73;;;15.70;68.60;;;;;;5036074;28;20204;-84